sensor_id;sensor_type;location;lat;lon;timestamp;temperature;humidity
7044;DHT22;57890;52.36301240;9.76001620;2022-08-19T00:01:20;23.50;93.90
7044;DHT22;57890;52.36301240;9.76001620;2022-08-19T00:03:47;23.50;93.80
7044;DHT22;57890;52.36301240;9.76001620;2022-08-19T00:06:15;23.50;93.80
7044;DHT22;57890;52.36301240;9.76001620;2022-08-19T00:08:41;23.50;93.80
7044;DHT22;57890;52.36301240;9.76001620;2022-08-19T00:11:09;23.50;93.70
7044;DHT22;57890;52.36301240;9.76001620;2022-08-19T00:13:36;23.50;93.70
7044;DHT22;57890;52.36301240;9.76001620;2022-08-19T00:16:04;23.50;93.70
7044;DHT22;57890;52.36301240;9.76001620;2022-08-19T00:18:33;23.50;93.60
7044;DHT22;57890;52.36301240;9.76001620;2022-08-19T00:21:01;23.50;93.60
7044;DHT22;57890;52.36301240;9.76001620;2022-08-19T00:23:27;23.50;93.50
7044;DHT22;57890;52.36301240;9.76001620;2022-08-19T00:25:55;23.50;93.50
7044;DHT22;57890;52.36301240;9.76001620;2022-08-19T00:28:22;23.50;93.40
7044;DHT22;57890;52.36301240;9.76001620;2022-08-19T00:30:49;23.50;93.40
7044;DHT22;57890;52.36301240;9.76001620;2022-08-19T00:33:17;23.50;93.30
7044;DHT22;57890;52.36301240;9.76001620;2022-08-19T00:35:45;23.50;93.60
7044;DHT22;57890;52.36301240;9.76001620;2022-08-19T00:38:12;23.50;93.30
7044;DHT22;57890;52.36301240;9.76001620;2022-08-19T00:40:39;23.50;93.30
7044;DHT22;57890;52.36301240;9.76001620;2022-08-19T00:43:09;23.40;93.20
7044;DHT22;57890;52.36301240;9.76001620;2022-08-19T00:45:39;23.40;93.20
7044;DHT22;57890;52.36301240;9.76001620;2022-08-19T00:48:09;23.40;93.20
7044;DHT22;57890;52.36301240;9.76001620;2022-08-19T00:50:38;23.40;93.20
7044;DHT22;57890;52.36301240;9.76001620;2022-08-19T00:53:07;23.40;93.20
7044;DHT22;57890;52.36301240;9.76001620;2022-08-19T00:55:34;23.40;93.20
7044;DHT22;57890;52.36301240;9.76001620;2022-08-19T00:58:04;23.40;93.20
7044;DHT22;57890;52.36301240;9.76001620;2022-08-19T01:00:33;23.40;93.10
7044;DHT22;57890;52.36301240;9.76001620;2022-08-19T01:03:02;23.30;93.10
7044;DHT22;57890;52.36301240;9.76001620;2022-08-19T01:05:29;23.30;93.00
7044;DHT22;57890;52.36301240;9.76001620;2022-08-19T01:07:58;23.30;93.10
7044;DHT22;57890;52.36301240;9.76001620;2022-08-19T01:10:30;23.30;93.10
7044;DHT22;57890;52.36301240;9.76001620;2022-08-19T01:12:59;23.30;93.10
7044;DHT22;57890;52.36301240;9.76001620;2022-08-19T01:15:31;23.30;93.00
7044;DHT22;57890;52.36301240;9.76001620;2022-08-19T01:18:01;23.30;93.10
7044;DHT22;57890;52.36301240;9.76001620;2022-08-19T01:20:30;23.20;93.00
7044;DHT22;57890;52.36301240;9.76001620;2022-08-19T01:23:01;23.20;93.00
7044;DHT22;57890;52.36301240;9.76001620;2022-08-19T01:25:31;23.20;93.10
7044;DHT22;57890;52.36301240;9.76001620;2022-08-19T01:27:58;23.20;93.10
7044;DHT22;57890;52.36301240;9.76001620;2022-08-19T01:30:28;23.20;93.10
7044;DHT22;57890;52.36301240;9.76001620;2022-08-19T01:32:57;23.20;93.10
7044;DHT22;57890;52.36301240;9.76001620;2022-08-19T01:35:27;23.20;93.10
7044;DHT22;57890;52.36301240;9.76001620;2022-08-19T01:37:58;23.20;93.10
7044;DHT22;57890;52.36301240;9.76001620;2022-08-19T01:40:29;23.20;93.10
7044;DHT22;57890;52.36301240;9.76001620;2022-08-19T01:42:57;23.20;93.10
7044;DHT22;57890;52.36301240;9.76001620;2022-08-19T01:45:25;23.10;93.10
7044;DHT22;57890;52.36301240;9.76001620;2022-08-19T01:47:53;23.10;93.10
7044;DHT22;57890;52.36301240;9.76001620;2022-08-19T01:50:21;23.10;93.10
7044;DHT22;57890;52.36301240;9.76001620;2022-08-19T01:52:48;23.10;93.10
7044;DHT22;57890;52.36301240;9.76001620;2022-08-19T01:55:18;23.10;93.10
7044;DHT22;57890;52.36301240;9.76001620;2022-08-19T01:57:50;23.10;93.20
7044;DHT22;57890;52.36301240;9.76001620;2022-08-19T02:00:20;23.10;93.20
7044;DHT22;57890;52.36301240;9.76001620;2022-08-19T02:02:47;23.10;93.20
7044;DHT22;57890;52.36301240;9.76001620;2022-08-19T02:05:14;23.10;93.20
7044;DHT22;57890;52.36301240;9.76001620;2022-08-19T02:07:41;23.10;93.20
7044;DHT22;57890;52.36301240;9.76001620;2022-08-19T02:10:12;23.10;93.20
7044;DHT22;57890;52.36301240;9.76001620;2022-08-19T02:12:40;23.10;93.20
7044;DHT22;57890;52.36301240;9.76001620;2022-08-19T02:15:09;23.10;93.20
7044;DHT22;57890;52.36301240;9.76001620;2022-08-19T02:17:37;23.10;93.20
7044;DHT22;57890;52.36301240;9.76001620;2022-08-19T02:20:05;23.10;93.20
7044;DHT22;57890;52.36301240;9.76001620;2022-08-19T02:22:33;23.00;93.20
7044;DHT22;57890;52.36301240;9.76001620;2022-08-19T02:25:01;23.00;93.10
7044;DHT22;57890;52.36301240;9.76001620;2022-08-19T02:27:30;23.00;93.20
7044;DHT22;57890;52.36301240;9.76001620;2022-08-19T02:29:57;23.00;93.20
7044;DHT22;57890;52.36301240;9.76001620;2022-08-19T02:32:25;23.10;93.20
7044;DHT22;57890;52.36301240;9.76001620;2022-08-19T02:34:52;23.00;93.20
7044;DHT22;57890;52.36301240;9.76001620;2022-08-19T02:37:19;23.10;93.20
7044;DHT22;57890;52.36301240;9.76001620;2022-08-19T02:40:04;23.00;93.20
7044;DHT22;57890;52.36301240;9.76001620;2022-08-19T02:42:32;23.00;93.20
7044;DHT22;57890;52.36301240;9.76001620;2022-08-19T02:44:59;23.00;93.10
7044;DHT22;57890;52.36301240;9.76001620;2022-08-19T02:47:27;23.10;93.20
7044;DHT22;57890;52.36301240;9.76001620;2022-08-19T02:49:54;23.10;93.10
7044;DHT22;57890;52.36301240;9.76001620;2022-08-19T02:52:21;23.00;93.10
7044;DHT22;57890;52.36301240;9.76001620;2022-08-19T02:54:48;23.00;93.10
7044;DHT22;57890;52.36301240;9.76001620;2022-08-19T02:57:15;23.00;93.10
7044;DHT22;57890;52.36301240;9.76001620;2022-08-19T02:59:42;23.00;93.10
7044;DHT22;57890;52.36301240;9.76001620;2022-08-19T03:02:09;23.00;93.00
7044;DHT22;57890;52.36301240;9.76001620;2022-08-19T03:04:37;23.00;93.00
7044;DHT22;57890;52.36301240;9.76001620;2022-08-19T03:07:04;23.00;93.00
7044;DHT22;57890;52.36301240;9.76001620;2022-08-19T03:09:31;23.00;93.00
7044;DHT22;57890;52.36301240;9.76001620;2022-08-19T03:11:58;23.00;93.00
7044;DHT22;57890;52.36301240;9.76001620;2022-08-19T03:14:25;23.00;93.00
7044;DHT22;57890;52.36301240;9.76001620;2022-08-19T03:16:52;23.00;93.00
7044;DHT22;57890;52.36301240;9.76001620;2022-08-19T03:19:20;23.00;93.00
7044;DHT22;57890;52.36301240;9.76001620;2022-08-19T03:21:49;23.00;93.00
7044;DHT22;57890;52.36301240;9.76001620;2022-08-19T03:24:18;23.00;93.00
7044;DHT22;57890;52.36301240;9.76001620;2022-08-19T03:26:46;23.00;93.00
7044;DHT22;57890;52.36301240;9.76001620;2022-08-19T03:29:14;23.00;93.00
7044;DHT22;57890;52.36301240;9.76001620;2022-08-19T03:31:42;22.90;93.00
7044;DHT22;57890;52.36301240;9.76001620;2022-08-19T03:34:10;22.90;93.00
7044;DHT22;57890;52.36301240;9.76001620;2022-08-19T03:36:38;22.90;93.10
7044;DHT22;57890;52.36301240;9.76001620;2022-08-19T03:39:06;22.90;93.10
7044;DHT22;57890;52.36301240;9.76001620;2022-08-19T03:41:37;22.90;93.20
7044;DHT22;57890;52.36301240;9.76001620;2022-08-19T03:44:04;22.90;93.20
7044;DHT22;57890;52.36301240;9.76001620;2022-08-19T03:46:33;22.90;93.20
7044;DHT22;57890;52.36301240;9.76001620;2022-08-19T03:49:01;22.80;93.10
7044;DHT22;57890;52.36301240;9.76001620;2022-08-19T03:51:32;22.80;93.20
7044;DHT22;57890;52.36301240;9.76001620;2022-08-19T03:54:01;22.80;93.20
7044;DHT22;57890;52.36301240;9.76001620;2022-08-19T03:56:30;22.80;93.20
7044;DHT22;57890;52.36301240;9.76001620;2022-08-19T03:58:59;22.80;93.20
7044;DHT22;57890;52.36301240;9.76001620;2022-08-19T04:01:28;22.80;93.20
7044;DHT22;57890;52.36301240;9.76001620;2022-08-19T04:03:56;22.70;93.10
7044;DHT22;57890;52.36301240;9.76001620;2022-08-19T04:06:25;22.70;93.10
7044;DHT22;57890;52.36301240;9.76001620;2022-08-19T04:08:54;22.70;93.10
7044;DHT22;57890;52.36301240;9.76001620;2022-08-19T04:11:23;22.70;93.10
7044;DHT22;57890;52.36301240;9.76001620;2022-08-19T04:13:52;22.60;93.10
7044;DHT22;57890;52.36301240;9.76001620;2022-08-19T04:16:21;22.60;93.10
7044;DHT22;57890;52.36301240;9.76001620;2022-08-19T04:18:49;22.60;93.10
7044;DHT22;57890;52.36301240;9.76001620;2022-08-19T04:21:17;22.50;93.10
7044;DHT22;57890;52.36301240;9.76001620;2022-08-19T04:23:44;22.50;93.20
7044;DHT22;57890;52.36301240;9.76001620;2022-08-19T04:26:12;22.50;93.20
7044;DHT22;57890;52.36301240;9.76001620;2022-08-19T04:28:39;22.50;93.20
7044;DHT22;57890;52.36301240;9.76001620;2022-08-19T04:31:13;22.40;93.20
7044;DHT22;57890;52.36301240;9.76001620;2022-08-19T04:33:40;22.40;93.30
7044;DHT22;57890;52.36301240;9.76001620;2022-08-19T04:36:08;22.40;93.30
7044;DHT22;57890;52.36301240;9.76001620;2022-08-19T04:38:41;22.40;93.30
7044;DHT22;57890;52.36301240;9.76001620;2022-08-19T04:41:08;22.40;93.30
7044;DHT22;57890;52.36301240;9.76001620;2022-08-19T04:43:52;22.30;93.40
7044;DHT22;57890;52.36301240;9.76001620;2022-08-19T04:46:21;22.30;93.50
7044;DHT22;57890;52.36301240;9.76001620;2022-08-19T04:48:47;22.30;93.60
7044;DHT22;57890;52.36301240;9.76001620;2022-08-19T04:51:14;22.30;93.50
7044;DHT22;57890;52.36301240;9.76001620;2022-08-19T04:53:43;22.40;93.50
7044;DHT22;57890;52.36301240;9.76001620;2022-08-19T04:56:12;22.40;93.50
7044;DHT22;57890;52.36301240;9.76001620;2022-08-19T04:58:40;22.40;93.50
7044;DHT22;57890;52.36301240;9.76001620;2022-08-19T05:01:08;22.40;93.50
7044;DHT22;57890;52.36301240;9.76001620;2022-08-19T05:03:37;22.40;93.50
7044;DHT22;57890;52.36301240;9.76001620;2022-08-19T05:06:05;22.40;93.60
7044;DHT22;57890;52.36301240;9.76001620;2022-08-19T05:08:35;22.40;93.60
7044;DHT22;57890;52.36301240;9.76001620;2022-08-19T05:11:08;22.40;93.50
7044;DHT22;57890;52.36301240;9.76001620;2022-08-19T05:13:35;22.40;93.50
7044;DHT22;57890;52.36301240;9.76001620;2022-08-19T05:16:02;22.40;93.50
7044;DHT22;57890;52.36301240;9.76001620;2022-08-19T05:18:29;22.40;93.50
7044;DHT22;57890;52.36301240;9.76001620;2022-08-19T05:21:18;22.40;93.50
7044;DHT22;57890;52.36301240;9.76001620;2022-08-19T05:24:03;22.40;93.40
7044;DHT22;57890;52.36301240;9.76001620;2022-08-19T05:26:33;22.50;93.30
7044;DHT22;57890;52.36301240;9.76001620;2022-08-19T05:29:00;22.50;93.30
7044;DHT22;57890;52.36301240;9.76001620;2022-08-19T05:31:27;22.40;93.30
7044;DHT22;57890;52.36301240;9.76001620;2022-08-19T05:33:54;22.40;93.30
7044;DHT22;57890;52.36301240;9.76001620;2022-08-19T05:36:25;22.40;93.20
7044;DHT22;57890;52.36301240;9.76001620;2022-08-19T05:38:52;22.40;93.20
7044;DHT22;57890;52.36301240;9.76001620;2022-08-19T05:41:21;22.40;93.20
7044;DHT22;57890;52.36301240;9.76001620;2022-08-19T05:43:48;22.40;93.20
7044;DHT22;57890;52.36301240;9.76001620;2022-08-19T05:46:18;22.30;93.20
7044;DHT22;57890;52.36301240;9.76001620;2022-08-19T05:48:45;22.30;93.20
7044;DHT22;57890;52.36301240;9.76001620;2022-08-19T05:51:12;22.30;93.20
7044;DHT22;57890;52.36301240;9.76001620;2022-08-19T05:53:41;22.30;93.20
7044;DHT22;57890;52.36301240;9.76001620;2022-08-19T05:56:10;22.20;93.20
7044;DHT22;57890;52.36301240;9.76001620;2022-08-19T05:58:37;22.20;93.20
7044;DHT22;57890;52.36301240;9.76001620;2022-08-19T06:01:09;22.10;93.20
7044;DHT22;57890;52.36301240;9.76001620;2022-08-19T06:03:37;22.10;93.10
7044;DHT22;57890;52.36301240;9.76001620;2022-08-19T06:06:06;22.00;93.10
7044;DHT22;57890;52.36301240;9.76001620;2022-08-19T06:08:33;22.00;93.20
7044;DHT22;57890;52.36301240;9.76001620;2022-08-19T06:11:21;22.00;93.20
7044;DHT22;57890;52.36301240;9.76001620;2022-08-19T06:13:51;22.00;93.30
7044;DHT22;57890;52.36301240;9.76001620;2022-08-19T06:16:19;22.00;93.30
7044;DHT22;57890;52.36301240;9.76001620;2022-08-19T06:18:49;21.90;93.30
7044;DHT22;57890;52.36301240;9.76001620;2022-08-19T06:21:17;22.00;93.30
7044;DHT22;57890;52.36301240;9.76001620;2022-08-19T06:23:45;21.90;93.30
7044;DHT22;57890;52.36301240;9.76001620;2022-08-19T06:26:13;21.90;93.30
7044;DHT22;57890;52.36301240;9.76001620;2022-08-19T06:28:42;21.90;93.30
7044;DHT22;57890;52.36301240;9.76001620;2022-08-19T06:31:13;21.90;93.30
7044;DHT22;57890;52.36301240;9.76001620;2022-08-19T06:33:41;21.90;93.30
7044;DHT22;57890;52.36301240;9.76001620;2022-08-19T06:36:16;21.90;93.30
7044;DHT22;57890;52.36301240;9.76001620;2022-08-19T06:38:44;21.90;93.30
7044;DHT22;57890;52.36301240;9.76001620;2022-08-19T06:41:10;21.90;93.30
7044;DHT22;57890;52.36301240;9.76001620;2022-08-19T06:43:37;21.90;93.20
7044;DHT22;57890;52.36301240;9.76001620;2022-08-19T06:46:10;21.90;93.20
7044;DHT22;57890;52.36301240;9.76001620;2022-08-19T06:48:37;21.90;93.20
7044;DHT22;57890;52.36301240;9.76001620;2022-08-19T06:51:04;21.90;93.10
7044;DHT22;57890;52.36301240;9.76001620;2022-08-19T06:53:31;21.80;93.00
7044;DHT22;57890;52.36301240;9.76001620;2022-08-19T06:55:59;21.80;93.00
7044;DHT22;57890;52.36301240;9.76001620;2022-08-19T06:58:28;21.80;92.90
7044;DHT22;57890;52.36301240;9.76001620;2022-08-19T07:00:59;21.80;92.90
7044;DHT22;57890;52.36301240;9.76001620;2022-08-19T07:03:29;21.80;93.00
7044;DHT22;57890;52.36301240;9.76001620;2022-08-19T07:05:57;21.80;93.10
7044;DHT22;57890;52.36301240;9.76001620;2022-08-19T07:08:24;21.80;93.10
7044;DHT22;57890;52.36301240;9.76001620;2022-08-19T07:10:52;21.80;93.10
7044;DHT22;57890;52.36301240;9.76001620;2022-08-19T07:13:20;21.80;93.00
7044;DHT22;57890;52.36301240;9.76001620;2022-08-19T07:15:48;21.80;93.10
7044;DHT22;57890;52.36301240;9.76001620;2022-08-19T07:18:17;21.80;93.10
7044;DHT22;57890;52.36301240;9.76001620;2022-08-19T07:20:45;21.80;93.10
7044;DHT22;57890;52.36301240;9.76001620;2022-08-19T07:23:12;21.90;93.10
7044;DHT22;57890;52.36301240;9.76001620;2022-08-19T07:25:39;21.90;93.10
7044;DHT22;57890;52.36301240;9.76001620;2022-08-19T07:28:07;21.90;93.00
7044;DHT22;57890;52.36301240;9.76001620;2022-08-19T07:30:36;21.90;93.00
7044;DHT22;57890;52.36301240;9.76001620;2022-08-19T07:33:03;22.00;93.10
7044;DHT22;57890;52.36301240;9.76001620;2022-08-19T07:35:30;22.00;93.00
7044;DHT22;57890;52.36301240;9.76001620;2022-08-19T07:38:01;22.00;93.00
7044;DHT22;57890;52.36301240;9.76001620;2022-08-19T07:40:29;22.10;93.10
7044;DHT22;57890;52.36301240;9.76001620;2022-08-19T07:42:56;22.00;92.90
7044;DHT22;57890;52.36301240;9.76001620;2022-08-19T07:45:24;22.00;92.80
7044;DHT22;57890;52.36301240;9.76001620;2022-08-19T07:47:51;22.10;92.90
7044;DHT22;57890;52.36301240;9.76001620;2022-08-19T07:50:19;22.10;93.00
7044;DHT22;57890;52.36301240;9.76001620;2022-08-19T07:52:46;22.10;92.80
7044;DHT22;57890;52.36301240;9.76001620;2022-08-19T07:55:18;22.10;92.90
7044;DHT22;57890;52.36301240;9.76001620;2022-08-19T07:57:46;22.10;92.80
7044;DHT22;57890;52.36301240;9.76001620;2022-08-19T08:00:14;22.10;92.80
7044;DHT22;57890;52.36301240;9.76001620;2022-08-19T08:02:41;22.20;92.90
7044;DHT22;57890;52.36301240;9.76001620;2022-08-19T08:05:09;22.20;92.90
7044;DHT22;57890;52.36301240;9.76001620;2022-08-19T08:07:54;22.20;92.80
7044;DHT22;57890;52.36301240;9.76001620;2022-08-19T08:10:39;22.20;92.80
7044;DHT22;57890;52.36301240;9.76001620;2022-08-19T08:13:06;22.30;92.80
7044;DHT22;57890;52.36301240;9.76001620;2022-08-19T08:15:33;22.30;92.80
7044;DHT22;57890;52.36301240;9.76001620;2022-08-19T08:18:00;22.30;92.80
7044;DHT22;57890;52.36301240;9.76001620;2022-08-19T08:20:28;22.30;92.80
7044;DHT22;57890;52.36301240;9.76001620;2022-08-19T08:22:54;22.40;92.80
7044;DHT22;57890;52.36301240;9.76001620;2022-08-19T08:25:40;22.40;92.80
7044;DHT22;57890;52.36301240;9.76001620;2022-08-19T08:28:07;22.40;92.70
7044;DHT22;57890;52.36301240;9.76001620;2022-08-19T08:30:34;22.40;92.70
7044;DHT22;57890;52.36301240;9.76001620;2022-08-19T08:33:03;22.50;92.70
7044;DHT22;57890;52.36301240;9.76001620;2022-08-19T08:35:30;22.50;92.50
7044;DHT22;57890;52.36301240;9.76001620;2022-08-19T08:37:59;22.50;92.40
7044;DHT22;57890;52.36301240;9.76001620;2022-08-19T08:40:29;22.50;92.50
7044;DHT22;57890;52.36301240;9.76001620;2022-08-19T08:43:03;22.60;92.40
7044;DHT22;57890;52.36301240;9.76001620;2022-08-19T08:45:35;22.60;92.20
7044;DHT22;57890;52.36301240;9.76001620;2022-08-19T08:48:11;22.60;92.20
7044;DHT22;57890;52.36301240;9.76001620;2022-08-19T08:50:43;22.60;92.10
7044;DHT22;57890;52.36301240;9.76001620;2022-08-19T08:53:17;22.60;92.10
7044;DHT22;57890;52.36301240;9.76001620;2022-08-19T08:55:46;22.60;92.00
7044;DHT22;57890;52.36301240;9.76001620;2022-08-19T08:58:20;22.60;92.00
7044;DHT22;57890;52.36301240;9.76001620;2022-08-19T09:00:48;22.60;92.00
7044;DHT22;57890;52.36301240;9.76001620;2022-08-19T09:03:19;22.70;91.90
7044;DHT22;57890;52.36301240;9.76001620;2022-08-19T09:05:56;22.70;91.90
7044;DHT22;57890;52.36301240;9.76001620;2022-08-19T09:08:35;22.70;91.80
7044;DHT22;57890;52.36301240;9.76001620;2022-08-19T09:11:07;22.70;91.70
7044;DHT22;57890;52.36301240;9.76001620;2022-08-19T09:13:43;22.70;91.70
7044;DHT22;57890;52.36301240;9.76001620;2022-08-19T09:16:14;22.70;91.50
7044;DHT22;57890;52.36301240;9.76001620;2022-08-19T09:18:43;22.80;91.50
7044;DHT22;57890;52.36301240;9.76001620;2022-08-19T09:21:12;22.80;91.60
7044;DHT22;57890;52.36301240;9.76001620;2022-08-19T09:23:39;22.70;91.50
7044;DHT22;57890;52.36301240;9.76001620;2022-08-19T09:26:07;22.80;91.50
7044;DHT22;57890;52.36301240;9.76001620;2022-08-19T09:28:37;22.80;91.50
7044;DHT22;57890;52.36301240;9.76001620;2022-08-19T09:31:04;22.90;91.60
7044;DHT22;57890;52.36301240;9.76001620;2022-08-19T09:33:31;22.90;91.60
7044;DHT22;57890;52.36301240;9.76001620;2022-08-19T09:36:03;22.90;91.60
7044;DHT22;57890;52.36301240;9.76001620;2022-08-19T09:38:30;23.00;91.50
7044;DHT22;57890;52.36301240;9.76001620;2022-08-19T09:41:02;23.00;91.50
7044;DHT22;57890;52.36301240;9.76001620;2022-08-19T09:43:30;23.00;91.40
7044;DHT22;57890;52.36301240;9.76001620;2022-08-19T09:45:58;23.00;91.40
7044;DHT22;57890;52.36301240;9.76001620;2022-08-19T09:48:25;23.00;91.50
7044;DHT22;57890;52.36301240;9.76001620;2022-08-19T09:50:52;23.00;91.50
7044;DHT22;57890;52.36301240;9.76001620;2022-08-19T09:53:19;23.00;91.40
7044;DHT22;57890;52.36301240;9.76001620;2022-08-19T09:55:47;23.10;91.40
7044;DHT22;57890;52.36301240;9.76001620;2022-08-19T09:58:14;23.10;91.20
7044;DHT22;57890;52.36301240;9.76001620;2022-08-19T10:00:41;23.10;91.10
7044;DHT22;57890;52.36301240;9.76001620;2022-08-19T10:03:09;23.10;91.10
7044;DHT22;57890;52.36301240;9.76001620;2022-08-19T10:05:37;23.10;91.00
7044;DHT22;57890;52.36301240;9.76001620;2022-08-19T10:08:17;23.10;91.00
7044;DHT22;57890;52.36301240;9.76001620;2022-08-19T10:10:45;23.20;91.00
7044;DHT22;57890;52.36301240;9.76001620;2022-08-19T10:13:14;23.20;91.00
7044;DHT22;57890;52.36301240;9.76001620;2022-08-19T10:15:41;23.20;90.90
7044;DHT22;57890;52.36301240;9.76001620;2022-08-19T10:18:09;23.20;90.80
7044;DHT22;57890;52.36301240;9.76001620;2022-08-19T10:20:36;23.20;90.90
7044;DHT22;57890;52.36301240;9.76001620;2022-08-19T10:23:03;23.30;90.90
7044;DHT22;57890;52.36301240;9.76001620;2022-08-19T10:25:32;23.30;91.00
7044;DHT22;57890;52.36301240;9.76001620;2022-08-19T10:27:59;23.30;90.90
7044;DHT22;57890;52.36301240;9.76001620;2022-08-19T10:30:26;23.30;90.80
7044;DHT22;57890;52.36301240;9.76001620;2022-08-19T10:32:53;23.30;90.70
7044;DHT22;57890;52.36301240;9.76001620;2022-08-19T10:35:21;23.30;90.70
7044;DHT22;57890;52.36301240;9.76001620;2022-08-19T10:37:48;23.30;90.60
7044;DHT22;57890;52.36301240;9.76001620;2022-08-19T10:40:15;23.40;90.50
7044;DHT22;57890;52.36301240;9.76001620;2022-08-19T10:42:42;23.40;90.40
7044;DHT22;57890;52.36301240;9.76001620;2022-08-19T10:45:10;23.40;90.40
7044;DHT22;57890;52.36301240;9.76001620;2022-08-19T10:47:37;23.50;90.30
7044;DHT22;57890;52.36301240;9.76001620;2022-08-19T10:50:04;23.50;90.20
7044;DHT22;57890;52.36301240;9.76001620;2022-08-19T10:52:50;23.50;90.10
7044;DHT22;57890;52.36301240;9.76001620;2022-08-19T10:55:19;23.60;90.00
7044;DHT22;57890;52.36301240;9.76001620;2022-08-19T10:58:04;23.60;89.70
7044;DHT22;57890;52.36301240;9.76001620;2022-08-19T11:00:36;23.60;89.50
7044;DHT22;57890;52.36301240;9.76001620;2022-08-19T11:03:02;23.70;89.30
7044;DHT22;57890;52.36301240;9.76001620;2022-08-19T11:05:29;23.70;88.90
7044;DHT22;57890;52.36301240;9.76001620;2022-08-19T11:07:58;23.70;88.80
7044;DHT22;57890;52.36301240;9.76001620;2022-08-19T11:10:24;23.70;88.70
7044;DHT22;57890;52.36301240;9.76001620;2022-08-19T11:12:51;23.70;88.80
7044;DHT22;57890;52.36301240;9.76001620;2022-08-19T11:15:20;23.80;88.60
7044;DHT22;57890;52.36301240;9.76001620;2022-08-19T11:17:47;23.80;88.50
7044;DHT22;57890;52.36301240;9.76001620;2022-08-19T11:20:15;23.90;88.20
7044;DHT22;57890;52.36301240;9.76001620;2022-08-19T11:22:42;23.90;88.10
7044;DHT22;57890;52.36301240;9.76001620;2022-08-19T11:25:10;23.90;88.20
7044;DHT22;57890;52.36301240;9.76001620;2022-08-19T11:27:39;24.00;88.50
7044;DHT22;57890;52.36301240;9.76001620;2022-08-19T11:30:09;24.00;89.10
7044;DHT22;57890;52.36301240;9.76001620;2022-08-19T11:32:37;24.00;89.20
7044;DHT22;57890;52.36301240;9.76001620;2022-08-19T11:35:04;24.00;88.50
7044;DHT22;57890;52.36301240;9.76001620;2022-08-19T11:37:32;24.00;88.20
7044;DHT22;57890;52.36301240;9.76001620;2022-08-19T11:40:06;24.00;87.90
7044;DHT22;57890;52.36301240;9.76001620;2022-08-19T11:42:35;24.10;87.50
7044;DHT22;57890;52.36301240;9.76001620;2022-08-19T11:45:20;24.10;87.30
7044;DHT22;57890;52.36301240;9.76001620;2022-08-19T11:47:47;24.10;87.50
7044;DHT22;57890;52.36301240;9.76001620;2022-08-19T11:50:14;24.20;87.50
7044;DHT22;57890;52.36301240;9.76001620;2022-08-19T11:52:42;24.20;87.40
7044;DHT22;57890;52.36301240;9.76001620;2022-08-19T11:55:09;24.30;87.90
7044;DHT22;57890;52.36301240;9.76001620;2022-08-19T11:57:37;24.40;87.90
7044;DHT22;57890;52.36301240;9.76001620;2022-08-19T12:00:06;24.40;88.10
7044;DHT22;57890;52.36301240;9.76001620;2022-08-19T12:02:34;24.50;88.00
7044;DHT22;57890;52.36301240;9.76001620;2022-08-19T12:05:01;24.60;88.20
7044;DHT22;57890;52.36301240;9.76001620;2022-08-19T12:07:28;24.70;87.30
7044;DHT22;57890;52.36301240;9.76001620;2022-08-19T12:09:59;24.80;87.50
7044;DHT22;57890;52.36301240;9.76001620;2022-08-19T12:12:26;24.90;87.40
7044;DHT22;57890;52.36301240;9.76001620;2022-08-19T12:14:55;25.00;86.90
7044;DHT22;57890;52.36301240;9.76001620;2022-08-19T12:17:24;25.10;86.40
7044;DHT22;57890;52.36301240;9.76001620;2022-08-19T12:19:51;25.20;86.70
7044;DHT22;57890;52.36301240;9.76001620;2022-08-19T12:22:18;25.20;86.60
7044;DHT22;57890;52.36301240;9.76001620;2022-08-19T12:24:46;25.30;86.70
7044;DHT22;57890;52.36301240;9.76001620;2022-08-19T12:27:15;25.40;86.10
7044;DHT22;57890;52.36301240;9.76001620;2022-08-19T12:29:42;25.50;86.60
7044;DHT22;57890;52.36301240;9.76001620;2022-08-19T12:32:10;25.50;87.00
7044;DHT22;57890;52.36301240;9.76001620;2022-08-19T12:34:37;25.60;87.00
7044;DHT22;57890;52.36301240;9.76001620;2022-08-19T12:37:05;25.70;86.30
7044;DHT22;57890;52.36301240;9.76001620;2022-08-19T12:39:34;25.70;86.30
7044;DHT22;57890;52.36301240;9.76001620;2022-08-19T12:42:02;25.80;86.50
7044;DHT22;57890;52.36301240;9.76001620;2022-08-19T12:44:29;25.90;86.00
7044;DHT22;57890;52.36301240;9.76001620;2022-08-19T12:46:57;26.00;86.40
7044;DHT22;57890;52.36301240;9.76001620;2022-08-19T12:49:27;26.10;86.50
7044;DHT22;57890;52.36301240;9.76001620;2022-08-19T12:51:54;26.10;85.50
7044;DHT22;57890;52.36301240;9.76001620;2022-08-19T12:54:21;26.20;84.80
7044;DHT22;57890;52.36301240;9.76001620;2022-08-19T12:56:47;26.30;85.00
7044;DHT22;57890;52.36301240;9.76001620;2022-08-19T12:59:14;26.40;84.80
7044;DHT22;57890;52.36301240;9.76001620;2022-08-19T13:01:43;26.50;84.80
7044;DHT22;57890;52.36301240;9.76001620;2022-08-19T13:04:10;26.60;85.70
7044;DHT22;57890;52.36301240;9.76001620;2022-08-19T13:06:39;26.90;85.00
7044;DHT22;57890;52.36301240;9.76001620;2022-08-19T13:09:05;28.00;84.80
7044;DHT22;57890;52.36301240;9.76001620;2022-08-19T13:11:32;29.30;83.90
7044;DHT22;57890;52.36301240;9.76001620;2022-08-19T13:14:00;30.40;82.90
7044;DHT22;57890;52.36301240;9.76001620;2022-08-19T13:16:27;31.50;81.50
7044;DHT22;57890;52.36301240;9.76001620;2022-08-19T13:18:56;32.30;80.20
7044;DHT22;57890;52.36301240;9.76001620;2022-08-19T13:21:25;33.10;77.80
7044;DHT22;57890;52.36301240;9.76001620;2022-08-19T13:23:54;33.70;76.00
7044;DHT22;57890;52.36301240;9.76001620;2022-08-19T13:26:21;34.50;75.60
7044;DHT22;57890;52.36301240;9.76001620;2022-08-19T13:28:48;35.20;75.70
7044;DHT22;57890;52.36301240;9.76001620;2022-08-19T13:31:34;35.70;73.00
7044;DHT22;57890;52.36301240;9.76001620;2022-08-19T13:34:26;36.40;71.80
7044;DHT22;57890;52.36301240;9.76001620;2022-08-19T13:36:53;37.10;70.60
7044;DHT22;57890;52.36301240;9.76001620;2022-08-19T13:39:21;37.70;70.30
7044;DHT22;57890;52.36301240;9.76001620;2022-08-19T13:41:49;38.20;68.40
7044;DHT22;57890;52.36301240;9.76001620;2022-08-19T13:44:17;38.70;67.30